Terminal Aerodrome Forecast
Issued by NWS Raleigh/Durham, NC

Current Version | Previous Version | Text Only | Print | Product List | Glossary On
Versions: 1 2 3 4 5 6 7 8 9 10 11 12 13 14 15 16 17 18 19 20 21 22 23 24 25 26 27 28 29 30 31 32 33 34 35 36 37 38 39 40 41 42 43 44 45 46 47 48 49 50
000 FTUS42 KRAH 041244 AAA TAFRDU TAF AMD KRDU 041244Z 0413/0512 23009KT 1/2SM FG OVC002 WS015/23050KT TEMPO 0413/0415 1/4SM FG VV001 FM041500 22012G22KT 1SM BR BKN007 FM041700 22015G25KT P6SM SCT020=

USA.gov is the U.S. government's official web portal to all federal, state and local government web resources and services.